Time;durP1;ratioP1;P1;durP2;ratioP2;P2;SDS_P1;SDS_P2;PMS_P1;PMS_P2;Temp;Humidity;BMP_temperature;BMP_pressure;BME280_temperature;BME280_humidity;BME280_pressure;Samples;Min_cycle;Max_cycle;Signal;HPM_P1;HPM_P2
2023/03/18 00:01:54;;;;;;;8.02;4.50;;;10.70;99.90;;;;;;7402542;19;19919;-77
2023/03/18 00:04:26;;;;;;;8.15;4.13;;;10.80;99.90;;;;;;7401787;19;19986;-77
2023/03/18 00:06:57;;;;;;;5.28;3.65;;;10.80;99.90;;;;;;7403179;19;19938;-77
2023/03/18 00:09:26;;;;;;;7.25;3.60;;;10.80;99.90;;;;;;7402632;19;19910;-76
2023/03/18 00:11:56;;;;;;;7.88;4.10;;;10.70;99.90;;;;;;7403119;19;20272;-77
2023/03/18 00:14:26;;;;;;;7.18;3.60;;;10.90;99.90;;;;;;7402931;19;19935;-77
2023/03/18 00:16:56;;;;;;;6.18;3.45;;;10.80;99.90;;;;;;7402432;19;19919;-77
2023/03/18 00:19:27;;;;;;;9.20;3.55;;;10.80;99.90;;;;;;7402474;19;20579;-77
2023/03/18 00:21:56;;;;;;;8.43;3.95;;;10.80;99.90;;;;;;7402277;19;19921;-77
2023/03/18 00:24:26;;;;;;;6.30;3.30;;;10.80;99.90;;;;;;7402609;19;19925;-78
2023/03/18 00:26:56;;;;;;;9.57;3.60;;;10.70;99.90;;;;;;7402345;19;19926;-77
2023/03/18 00:29:25;;;;;;;6.35;3.40;;;10.90;99.90;;;;;;7402560;19;19988;-77
2023/03/18 00:31:57;;;;;;;5.85;3.58;;;10.70;99.90;;;;;;7400795;19;19923;-77
2023/03/18 00:34:32;;;;;;;7.10;3.80;;;10.80;99.90;;;;;;7402415;19;19910;-77
2023/03/18 00:37:00;;;;;;;;;;;10.90;99.90;;;;;;7403780;19;20618;-78
2023/03/18 00:39:31;;;;;;;7.30;3.30;;;10.80;99.90;;;;;;7400814;19;20272;-77
2023/03/18 00:42:06;;;;;;;5.05;3.15;;;10.70;99.90;;;;;;7402010;19;19931;-78
2023/03/18 00:44:35;;;;;;;7.47;3.72;;;10.80;99.90;;;;;;7401636;19;19921;-77
2023/03/18 00:47:04;;;;;;;10.05;3.53;;;10.70;99.90;;;;;;7402217;19;19925;-77
2023/03/18 00:49:36;;;;;;;9.48;3.25;;;10.80;99.90;;;;;;7402034;19;19914;-77
2023/03/18 00:52:05;;;;;;;5.70;2.83;;;10.70;99.90;;;;;;7401899;19;19922;-77
2023/03/18 00:54:34;;;;;;;6.65;3.65;;;10.60;99.90;;;;;;7401380;19;20269;-77
2023/03/18 00:57:05;;;;;;;6.55;3.30;;;10.70;99.90;;;;;;7400387;19;19941;-77
2023/03/18 00:59:34;;;;;;;10.02;2.90;;;10.70;99.90;;;;;;7401514;19;19918;-77
2023/03/18 01:02:03;;;;;;;4.55;3.13;;;10.70;99.90;;;;;;7401681;19;19929;-77
2023/03/18 01:04:32;;;;;;;8.32;2.90;;;10.70;99.90;;;;;;7400377;19;19922;-77
2023/03/18 01:07:04;;;;;;;7.53;3.50;;;10.60;99.90;;;;;;7401255;19;19976;-77
2023/03/18 01:09:33;;;;;;;4.40;3.20;;;10.60;99.90;;;;;;7401483;19;20241;-77
2023/03/18 01:12:04;;;;;;;5.63;3.22;;;10.60;99.90;;;;;;7401174;19;20352;-77
2023/03/18 01:14:33;;;;;;;5.32;3.00;;;10.80;99.90;;;;;;7401293;19;19921;-77
2023/03/18 01:17:03;;;;;;;8.82;3.30;;;10.50;99.90;;;;;;7400704;19;19919;-77
2023/03/18 01:19:32;;;;;;;4.35;3.10;;;10.70;99.90;;;;;;7400715;19;19933;-77
2023/03/18 01:22:06;;;;;;;5.78;3.00;;;10.60;99.90;;;;;;7398793;19;19967;-77
2023/03/18 01:24:35;;;;;;;5.63;3.42;;;10.60;99.90;;;;;;7400617;19;20348;-77
2023/03/18 01:27:05;;;;;;;7.00;3.55;;;10.60;99.90;;;;;;7400446;19;20612;-78
2023/03/18 01:29:34;;;;;;;6.00;2.80;;;10.70;99.90;;;;;;7401484;19;19924;-77
2023/03/18 01:32:04;;;;;;;6.07;3.10;;;10.60;99.90;;;;;;7402262;19;19919;-77
2023/03/18 01:34:33;;;;;;;6.55;3.30;;;10.60;99.90;;;;;;7401624;19;19982;-77
2023/03/18 01:37:05;;;;;;;3.92;3.13;;;10.40;99.90;;;;;;7401940;19;19923;-77
2023/03/18 01:39:34;;;;;;;7.20;2.85;;;10.60;99.90;;;;;;7401969;19;19925;-77
2023/03/18 01:42:04;;;;;;;6.38;3.15;;;10.50;99.90;;;;;;7401548;19;19990;-77
2023/03/18 01:44:34;;;;;;;7.63;3.00;;;10.50;99.90;;;;;;7400866;19;19914;-77
2023/03/18 01:47:03;;;;;;;7.00;3.67;;;10.30;99.90;;;;;;7400941;19;19915;-77
2023/03/18 01:49:38;;;;;;;8.43;3.05;;;10.30;99.90;;;;;;7403392;19;19914;-79
2023/03/18 01:52:14;;;;;;;5.75;3.33;;;10.40;99.90;;;;;;7406582;19;19929;-77
2023/03/18 01:54:52;;;;;;;5.47;3.05;;;10.40;99.90;;;;;;7407331;19;19919;-77
2023/03/18 01:57:22;;;;;;;6.85;3.30;;;10.10;99.90;;;;;;7407994;19;19934;-78
2023/03/18 01:59:54;;;;;;;6.93;3.13;;;10.30;99.90;;;;;;7407289;19;20094;-78
2023/03/18 02:02:24;;;;;;;7.82;3.63;;;10.40;99.90;;;;;;7405986;19;19915;-76
2023/03/18 02:04:55;;;;;;;8.30;3.45;;;10.20;99.90;;;;;;7402302;19;19922;-76
2023/03/18 02:07:29;;;;;;;8.77;3.53;;;10.20;99.90;;;;;;7406347;19;19907;-76
2023/03/18 02:10:01;;;;;;;6.90;3.30;;;10.10;99.90;;;;;;7406298;19;19931;-76
2023/03/18 02:12:34;;;;;;;7.05;3.22;;;10.20;99.90;;;;;;7406315;19;19918;-76
2023/03/18 02:15:15;;;;;;;7.55;3.67;;;10.00;99.90;;;;;;7405679;19;19911;-76
2023/03/18 02:17:53;;;;;;;7.47;4.88;;;10.10;99.90;;;;;;7405629;19;19925;-76
2023/03/18 02:20:36;;;;;;;6.00;3.47;;;10.00;99.90;;;;;;7406049;19;19927;-76
2023/03/18 02:23:14;;;;;;;7.50;4.45;;;10.00;99.90;;;;;;7404557;19;19978;-76
2023/03/18 02:25:51;;;;;;;6.50;3.92;;;10.00;99.90;;;;;;7406405;19;19926;-76
2023/03/18 02:28:26;;;;;;;8.13;4.32;;;10.10;99.90;;;;;;7405656;19;20369;-76
2023/03/18 02:30:57;;;;;;;8.07;4.63;;;10.10;99.90;;;;;;7405568;19;19935;-77
2023/03/18 02:33:29;;;;;;;;;;;10.00;99.90;;;;;;7408248;19;19919;-77
2023/03/18 02:36:04;;;;;;;7.22;4.22;;;10.10;99.90;;;;;;7405371;19;20003;-77
2023/03/18 02:38:34;;;;;;;9.15;4.90;;;10.00;99.90;;;;;;7405565;19;19930;-77
2023/03/18 02:41:03;;;;;;;9.93;5.20;;;10.00;99.90;;;;;;7404996;19;19918;-77
2023/03/18 02:43:35;;;;;;;12.63;5.72;;;9.90;99.90;;;;;;7404052;19;19918;-77
2023/03/18 02:46:14;;;;;;;12.52;6.47;;;10.00;99.90;;;;;;7405557;19;20616;-77
2023/03/18 02:48:46;;;;;;;9.98;5.97;;;10.00;99.90;;;;;;7405349;19;20341;-77
2023/03/18 02:51:17;;;;;;;12.13;6.72;;;9.90;99.90;;;;;;7405494;19;19931;-77
2023/03/18 02:53:47;;;;;;;12.10;7.15;;;9.90;99.90;;;;;;7405211;19;19918;-77
2023/03/18 02:56:16;;;;;;;9.80;6.65;;;9.90;99.90;;;;;;7404508;19;19950;-77
2023/03/18 02:58:48;;;;;;;13.30;7.32;;;10.00;99.90;;;;;;7405220;19;20015;-77
2023/03/18 03:01:21;;;;;;;12.88;7.13;;;9.80;99.90;;;;;;7402644;19;19918;-77
2023/03/18 03:03:50;;;;;;;12.70;7.00;;;9.80;99.90;;;;;;7403589;19;19919;-77
2023/03/18 03:06:19;;;;;;;12.02;7.03;;;9.90;99.90;;;;;;7405209;19;19926;-77
2023/03/18 03:08:48;;;;;;;12.95;7.38;;;9.80;99.90;;;;;;7405470;19;19915;-77
2023/03/18 03:11:19;;;;;;;14.98;7.93;;;9.90;99.90;;;;;;7402720;19;19938;-77
2023/03/18 03:13:52;;;;;;;15.60;8.40;;;9.80;99.90;;;;;;7404510;19;20349;-77
2023/03/18 03:16:22;;;;;;;15.15;9.23;;;9.80;99.90;;;;;;7403947;19;19918;-77
2023/03/18 03:18:51;;;;;;;15.50;9.50;;;9.80;99.90;;;;;;7404903;19;19933;-78
2023/03/18 03:21:20;;;;;;;15.30;9.82;;;9.80;99.90;;;;;;7404239;19;19906;-77
2023/03/18 03:23:50;;;;;;;18.45;9.40;;;9.90;99.90;;;;;;7402972;19;19915;-77
2023/03/18 03:26:19;;;;;;;17.95;9.65;;;9.90;99.90;;;;;;7404500;19;19917;-77
2023/03/18 03:28:50;;;;;;;17.15;9.27;;;10.00;99.90;;;;;;7404255;19;19919;-77
2023/03/18 03:31:20;;;;;;;15.13;9.20;;;9.90;99.90;;;;;;7404354;19;19914;-77
2023/03/18 03:33:49;;;;;;;15.52;9.45;;;9.90;99.90;;;;;;7403972;19;19915;-77
2023/03/18 03:36:19;;;;;;;17.27;9.40;;;9.70;99.90;;;;;;7403781;19;20337;-77
2023/03/18 03:38:49;;;;;;;18.98;10.23;;;9.90;99.90;;;;;;7404124;19;19924;-77
2023/03/18 03:41:18;;;;;;;20.63;9.68;;;9.90;99.90;;;;;;7404102;19;19915;-77
2023/03/18 03:43:48;;;;;;;15.13;9.40;;;9.80;99.90;;;;;;7402956;19;19918;-77
2023/03/18 03:46:20;;;;;;;20.98;10.57;;;9.80;99.90;;;;;;7405204;19;19919;-77
2023/03/18 03:48:49;;;;;;;;;;;9.80;99.90;;;;;;7406470;19;19927;-77
2023/03/18 03:51:18;;;;;;;14.38;8.90;;;9.60;99.90;;;;;;7403342;19;19914;-77
2023/03/18 03:53:47;;;;;;;16.90;9.57;;;9.70;99.90;;;;;;7403491;19;20283;-77
2023/03/18 03:56:16;;;;;;;15.75;9.43;;;9.60;99.90;;;;;;7402943;19;19922;-77
2023/03/18 03:58:46;;;;;;;19.38;9.73;;;9.60;99.90;;;;;;7401876;19;19929;-78
2023/03/18 04:01:15;;;;;;;16.73;8.68;;;9.60;99.90;;;;;;7403254;19;19918;-78
2023/03/18 04:03:50;;;;;;;17.17;10.05;;;9.40;99.90;;;;;;7402712;19;19915;-77
2023/03/18 04:06:18;;;;;;;16.80;9.30;;;9.40;99.90;;;;;;7403387;19;20534;-78
2023/03/18 04:08:48;;;;;;;16.27;9.38;;;9.40;99.90;;;;;;7401304;19;19941;-78
2023/03/18 04:11:17;;;;;;;17.90;10.73;;;9.50;99.90;;;;;;7403531;19;19939;-77
2023/03/18 04:13:47;;;;;;;18.20;9.88;;;9.50;99.90;;;;;;7403188;19;19937;-78
2023/03/18 04:16:17;;;;;;;16.02;9.88;;;9.50;99.90;;;;;;7402823;19;19919;-78
2023/03/18 04:18:49;;;;;;;19.23;10.32;;;9.50;99.90;;;;;;7402745;19;20345;-78
2023/03/18 04:21:18;;;;;;;16.27;9.80;;;9.50;99.90;;;;;;7402923;19;20365;-78
2023/03/18 04:23:46;;;;;;;14.88;9.65;;;9.50;99.90;;;;;;7402035;19;19982;-78
2023/03/18 04:26:18;;;;;;;;;;;9.50;99.90;;;;;;7405666;19;19922;-78
2023/03/18 04:28:47;;;;;;;14.43;9.27;;;9.40;99.90;;;;;;7402982;19;19990;-78
2023/03/18 04:31:16;;;;;;;18.50;9.82;;;9.40;99.90;;;;;;7402623;19;19922;-77
2023/03/18 04:33:49;;;;;;;15.45;10.32;;;9.20;99.90;;;;;;7402418;19;19919;-77
2023/03/18 04:36:18;;;;;;;19.75;10.80;;;9.10;99.90;;;;;;7402231;19;19915;-77
2023/03/18 04:38:47;;;;;;;17.17;9.98;;;9.10;99.90;;;;;;7402311;19;19922;-77
2023/03/18 04:41:16;;;;;;;17.73;10.25;;;9.00;99.90;;;;;;7402690;19;19926;-77
2023/03/18 04:43:47;;;;;;;21.75;11.52;;;8.90;99.90;;;;;;7402022;19;19932;-78
2023/03/18 04:46:17;;;;;;;18.52;9.65;;;8.90;99.90;;;;;;7404843;19;19918;-77
2023/03/18 04:48:45;;;;;;;20.40;11.10;;;9.00;99.90;;;;;;7402125;19;19923;-77
2023/03/18 04:51:23;;;;;;;20.55;9.60;;;8.90;99.90;;;;;;7402010;19;19922;-77
2023/03/18 04:53:52;;;;;;;23.17;10.50;;;8.80;99.90;;;;;;7401893;19;19919;-77
2023/03/18 04:56:21;;;;;;;18.08;9.63;;;8.80;99.90;;;;;;7401615;19;19918;-77
2023/03/18 04:58:50;;;;;;;21.92;11.73;;;8.70;99.90;;;;;;7401878;19;19931;-77
2023/03/18 05:01:19;;;;;;;20.60;10.48;;;8.80;99.90;;;;;;7402305;19;19961;-77
2023/03/18 05:03:49;;;;;;;15.63;9.88;;;8.70;99.90;;;;;;7401586;19;19918;-77
2023/03/18 05:06:26;;;;;;;16.35;9.18;;;8.60;99.90;;;;;;7402816;19;19914;-77
2023/03/18 05:08:55;;;;;;;21.50;10.15;;;8.70;99.90;;;;;;7402132;19;19922;-77
2023/03/18 05:11:25;;;;;;;19.42;10.27;;;8.70;99.90;;;;;;7401776;19;19939;-77
2023/03/18 05:13:54;;;;;;;16.73;9.80;;;8.70;99.90;;;;;;7401588;19;20373;-77
2023/03/18 05:16:24;;;;;;;17.52;9.65;;;8.60;99.90;;;;;;7401004;19;19975;-77
2023/03/18 05:18:53;;;;;;;20.08;10.63;;;8.60;99.90;;;;;;7401642;19;20369;-77
2023/03/18 05:21:25;;;;;;;15.82;8.98;;;8.40;99.90;;;;;;7401617;19;19929;-77
2023/03/18 05:23:53;;;;;;;18.27;10.48;;;8.50;99.90;;;;;;7399163;19;19918;-77
2023/03/18 05:26:23;;;;;;;25.63;10.70;;;8.60;99.90;;;;;;7401678;19;19911;-77
2023/03/18 05:28:52;;;;;;;18.90;10.00;;;8.50;99.90;;;;;;7401283;19;19919;-77
2023/03/18 05:31:23;;;;;;;20.27;11.13;;;8.60;99.90;;;;;;7401441;19;19919;-77
2023/03/18 05:33:52;;;;;;;17.05;10.15;;;8.60;99.90;;;;;;7401187;19;19914;-77
2023/03/18 05:36:22;;;;;;;22.50;10.38;;;8.50;99.90;;;;;;7401199;19;19918;-77
2023/03/18 05:38:53;;;;;;;20.60;10.52;;;8.70;99.90;;;;;;7400743;19;19930;-77
2023/03/18 05:41:23;;;;;;;19.23;11.30;;;8.80;99.90;;;;;;7401021;19;19918;-77
2023/03/18 05:43:52;;;;;;;20.55;11.32;;;8.60;99.90;;;;;;7400499;19;19918;-77
2023/03/18 05:46:21;;;;;;;18.50;10.70;;;8.70;99.90;;;;;;7402897;19;19922;-77
2023/03/18 05:49:10;;;;;;;17.13;10.75;;;8.70;99.90;;;;;;7399070;19;19925;-77
2023/03/18 05:52:00;;;;;;;19.02;11.10;;;8.80;99.90;;;;;;7398743;19;20252;-77
2023/03/18 05:54:51;;;;;;;22.50;11.35;;;9.00;99.90;;;;;;7398839;19;19929;-78
2023/03/18 05:57:40;;;;;;;18.08;10.45;;;9.00;99.90;;;;;;7397768;19;20375;-77
2023/03/18 06:00:30;;;;;;;20.45;11.15;;;9.00;99.90;;;;;;7399412;19;20373;-77
2023/03/18 06:03:00;;;;;;;18.55;10.57;;;9.00;99.90;;;;;;7401095;19;19926;-77
2023/03/18 06:05:30;;;;;;;23.60;11.68;;;9.00;99.90;;;;;;7399224;19;20347;-77
2023/03/18 06:08:00;;;;;;;17.90;10.95;;;9.10;99.90;;;;;;7401834;19;19959;-77
2023/03/18 06:10:32;;;;;;;20.02;10.93;;;9.10;99.90;;;;;;7400997;19;20259;-77
2023/03/18 06:13:01;;;;;;;20.73;10.82;;;9.00;99.90;;;;;;7400788;19;20201;-77
2023/03/18 06:15:30;;;;;;;19.25;11.10;;;9.00;99.90;;;;;;7399229;19;19926;-77
2023/03/18 06:18:01;;;;;;;23.70;11.10;;;8.90;99.90;;;;;;7399707;19;20333;-77
2023/03/18 06:20:30;;;;;;;15.18;10.05;;;9.00;99.90;;;;;;7399689;19;19942;-77
2023/03/18 06:22:59;;;;;;;20.42;9.55;;;8.90;99.90;;;;;;7399947;19;19910;-77
2023/03/18 06:25:31;;;;;;;18.48;11.27;;;9.00;99.90;;;;;;7396343;19;20310;-77
2023/03/18 06:28:00;;;;;;;22.13;10.18;;;8.90;99.90;;;;;;7399561;19;20345;-77
2023/03/18 06:30:29;;;;;;;17.40;9.68;;;9.00;99.90;;;;;;7402369;19;19927;-77
2023/03/18 06:32:58;;;;;;;15.18;9.63;;;9.00;99.90;;;;;;7399431;19;20369;-77
2023/03/18 06:35:28;;;;;;;16.52;10.25;;;9.00;99.90;;;;;;7398018;19;20271;-77
2023/03/18 06:37:57;;;;;;;17.88;10.65;;;9.10;99.90;;;;;;7405860;19;19942;-76
2023/03/18 06:40:27;;;;;;;19.92;10.38;;;9.00;99.90;;;;;;7405965;19;19915;-76
2023/03/18 06:42:58;;;;;;;20.30;10.85;;;9.10;99.90;;;;;;7404061;19;19922;-76
2023/03/18 06:45:28;;;;;;;15.90;9.98;;;9.00;99.90;;;;;;7407065;19;19921;-76
2023/03/18 06:47:57;;;;;;;20.70;10.18;;;9.10;99.90;;;;;;7405506;19;19939;-76
2023/03/18 06:50:26;;;;;;;18.45;10.85;;;9.20;99.90;;;;;;7406021;19;19918;-76
2023/03/18 06:52:55;;;;;;;18.23;10.77;;;9.20;99.90;;;;;;7405032;19;19919;-76
2023/03/18 06:55:24;;;;;;;19.88;10.65;;;9.30;99.90;;;;;;7405468;19;19923;-76
2023/03/18 06:57:53;;;;;;;17.80;9.60;;;9.30;99.90;;;;;;7403165;19;19963;-76
2023/03/18 07:00:26;;;;;;;15.63;9.40;;;9.20;99.90;;;;;;7404246;19;20288;-76
2023/03/18 07:02:55;;;;;;;19.83;10.98;;;9.30;99.90;;;;;;7405064;19;19947;-77
2023/03/18 07:05:25;;;;;;;18.02;10.05;;;9.30;99.90;;;;;;7402491;19;19936;-76
2023/03/18 07:07:54;;;;;;;20.13;11.20;;;9.40;99.90;;;;;;7405253;19;19939;-76
2023/03/18 07:10:26;;;;;;;18.35;10.30;;;9.30;99.90;;;;;;7404985;19;19914;-77
2023/03/18 07:12:56;;;;;;;19.35;11.85;;;9.30;99.90;;;;;;7404814;19;19978;-76
2023/03/18 07:15:27;;;;;;;17.63;11.13;;;9.50;99.90;;;;;;7404226;19;19918;-76
2023/03/18 07:17:59;;;;;;;18.30;11.38;;;9.50;99.90;;;;;;7404442;19;19921;-76
2023/03/18 07:20:29;;;;;;;19.77;11.85;;;9.50;99.90;;;;;;7404393;19;20337;-76
2023/03/18 07:22:58;;;;;;;20.25;10.50;;;9.50;99.90;;;;;;7404524;19;20293;-77
2023/03/18 07:25:28;;;;;;;18.90;11.00;;;9.60;99.90;;;;;;7402978;19;19925;-76
2023/03/18 07:27:59;;;;;;;17.38;11.05;;;9.60;99.90;;;;;;7404549;19;19919;-77
2023/03/18 07:30:30;;;;;;;19.25;10.90;;;9.60;99.90;;;;;;7404592;19;19922;-77
2023/03/18 07:32:59;;;;;;;18.92;11.18;;;9.60;99.90;;;;;;7403908;19;19918;-77
2023/03/18 07:35:31;;;;;;;21.92;11.63;;;9.60;99.90;;;;;;7404153;19;19926;-77
2023/03/18 07:38:00;;;;;;;16.42;10.57;;;9.60;99.90;;;;;;7404611;19;19917;-77
2023/03/18 07:40:38;;;;;;;20.33;11.30;;;9.70;99.90;;;;;;7404082;19;19923;-76
2023/03/18 07:43:08;;;;;;;18.13;11.18;;;9.80;99.90;;;;;;7404611;19;19922;-77
2023/03/18 07:45:39;;;;;;;21.20;11.55;;;9.70;99.90;;;;;;7405786;19;19933;-76
2023/03/18 07:48:09;;;;;;;19.02;11.10;;;9.60;99.90;;;;;;7402712;19;19918;-77
2023/03/18 07:50:38;;;;;;;19.98;11.52;;;9.70;99.90;;;;;;7403277;19;19982;-76
2023/03/18 07:53:07;;;;;;;23.85;11.95;;;9.90;99.90;;;;;;7404062;19;19907;-76
2023/03/18 07:55:35;;;;;;;21.38;11.68;;;9.80;99.90;;;;;;7403018;19;19914;-76
2023/03/18 07:58:08;;;;;;;19.48;11.50;;;9.80;99.90;;;;;;7402073;19;19923;-76
2023/03/18 08:00:39;;;;;;;24.42;13.25;;;9.90;99.90;;;;;;7403283;19;19915;-76
2023/03/18 08:03:08;;;;;;;23.88;12.25;;;10.00;99.90;;;;;;7403692;19;19931;-77
2023/03/18 08:05:39;;;;;;;22.30;12.32;;;10.00;99.90;;;;;;7402231;19;19921;-77
2023/03/18 08:08:08;;;;;;;20.42;11.50;;;10.00;99.90;;;;;;7401747;19;20320;-76
2023/03/18 08:10:37;;;;;;;19.02;10.65;;;10.00;99.90;;;;;;7403389;19;19999;-77
2023/03/18 08:13:06;;;;;;;20.02;11.52;;;10.10;99.90;;;;;;7403308;19;19974;-77
2023/03/18 08:15:35;;;;;;;21.45;12.07;;;10.10;99.90;;;;;;7402281;19;19918;-77
2023/03/18 08:18:07;;;;;;;19.90;12.52;;;10.10;99.90;;;;;;7402165;19;20341;-76
2023/03/18 08:20:37;;;;;;;19.77;10.70;;;10.20;99.90;;;;;;7402373;19;20001;-77
2023/03/18 08:23:06;;;;;;;17.52;11.43;;;10.30;99.90;;;;;;7402229;19;19910;-76
2023/03/18 08:25:41;;;;;;;16.67;11.32;;;10.10;99.90;;;;;;7401680;19;19922;-77
2023/03/18 08:28:10;;;;;;;16.27;10.35;;;10.10;99.90;;;;;;7402762;19;19933;-76
2023/03/18 08:30:40;;;;;;;17.83;10.65;;;10.00;99.90;;;;;;7402683;19;19933;-77
2023/03/18 08:33:12;;;;;;;19.45;11.32;;;10.00;99.90;;;;;;7402269;19;19918;-76
2023/03/18 08:35:43;;;;;;;16.35;9.07;;;10.10;99.90;;;;;;7402331;19;19914;-77
2023/03/18 08:38:12;;;;;;;17.45;9.80;;;10.10;99.90;;;;;;7401953;19;19918;-77
2023/03/18 08:40:42;;;;;;;17.05;10.63;;;10.10;99.90;;;;;;7401899;19;20322;-76
2023/03/18 08:43:11;;;;;;;19.40;10.77;;;10.20;99.90;;;;;;7402291;19;20462;-76
2023/03/18 08:45:40;;;;;;;18.90;10.70;;;10.20;99.90;;;;;;7405409;19;20253;-76
2023/03/18 08:48:12;;;;;;;17.73;9.38;;;10.30;99.90;;;;;;7399956;19;19921;-76
2023/03/18 08:50:41;;;;;;;19.05;10.57;;;10.40;99.90;;;;;;7401910;19;19986;-77
2023/03/18 08:53:11;;;;;;;19.45;9.93;;;10.40;99.90;;;;;;7401698;19;20274;-76
2023/03/18 08:55:41;;;;;;;13.40;9.50;;;10.50;99.90;;;;;;7401230;19;19923;-76
2023/03/18 08:58:14;;;;;;;17.88;9.85;;;10.50;99.90;;;;;;7398522;19;20365;-77
2023/03/18 09:00:43;;;;;;;18.77;9.95;;;10.50;99.90;;;;;;7399582;19;19986;-77
2023/03/18 09:03:15;;;;;;;18.02;9.85;;;10.60;99.90;;;;;;7401725;19;19922;-77
2023/03/18 09:05:44;;;;;;;;;;;10.70;99.90;;;;;;7403536;19;19914;-77
2023/03/18 09:08:14;;;;;;;20.95;10.27;;;10.70;99.90;;;;;;7402055;19;19932;-77
2023/03/18 09:10:43;;;;;;;19.27;10.25;;;10.80;99.90;;;;;;7401015;19;19956;-77
2023/03/18 09:13:12;;;;;;;20.13;11.98;;;11.00;99.90;;;;;;7401923;19;20088;-77
2023/03/18 09:15:43;;;;;;;16.90;10.48;;;10.90;99.90;;;;;;7400912;19;20348;-77
2023/03/18 09:18:35;;;;;;;16.42;9.98;;;11.10;99.90;;;;;;7399239;19;19922;-77
2023/03/18 09:21:24;;;;;;;15.15;9.50;;;11.10;99.90;;;;;;7399264;19;20292;-77
2023/03/18 09:24:14;;;;;;;19.65;10.93;;;11.10;99.90;;;;;;7398975;19;20253;-77
2023/03/18 09:27:03;;;;;;;16.05;10.45;;;11.30;99.90;;;;;;7397650;19;19926;-76
2023/03/18 09:29:52;;;;;;;18.40;11.02;;;11.20;99.90;;;;;;7399020;19;19954;-77
2023/03/18 09:32:41;;;;;;;19.60;11.60;;;11.30;99.90;;;;;;7398741;19;20344;-76
2023/03/18 09:35:32;;;;;;;20.88;11.05;;;11.30;99.90;;;;;;7398645;19;19915;-77
2023/03/18 09:38:22;;;;;;;17.90;11.13;;;11.40;99.90;;;;;;7398648;19;19940;-77
2023/03/18 09:41:26;;;;;;;22.08;12.00;;;11.40;99.90;;;;;;7398442;19;20244;-77
2023/03/18 09:44:23;;;;;;;22.08;11.65;;;11.60;99.90;;;;;;7400518;19;19921;-77
2023/03/18 09:47:35;;;;;;;20.73;11.27;;;11.50;99.90;;;;;;7396479;19;19934;-77
2023/03/18 09:50:38;;;;;;;19.92;11.60;;;11.60;99.90;;;;;;7398262;19;20024;-77
2023/03/18 09:53:33;;;;;;;22.40;11.75;;;11.60;99.90;;;;;;7398053;19;19914;-77
2023/03/18 09:56:26;;;;;;;15.80;10.90;;;11.60;99.90;;;;;;7398166;19;20349;-77
2023/03/18 09:59:21;;;;;;;20.92;12.75;;;11.70;99.90;;;;;;7397915;19;19980;-77
2023/03/18 10:02:21;;;;;;;20.38;12.32;;;11.70;99.90;;;;;;7397716;19;19956;-77
2023/03/18 10:05:16;;;;;;;24.80;12.48;;;11.60;99.90;;;;;;7396060;19;19915;-77
2023/03/18 10:08:14;;;;;;;18.15;11.88;;;11.60;99.90;;;;;;7397655;19;19952;-77
2023/03/18 10:11:08;;;;;;;18.23;11.35;;;11.80;99.90;;;;;;7402153;19;19907;-77
2023/03/18 10:14:18;;;;;;;21.83;12.60;;;11.90;99.90;;;;;;7404297;19;20241;-77
2023/03/18 10:17:19;;;;;;;18.10;10.30;;;12.00;99.90;;;;;;7404364;19;19927;-77
2023/03/18 10:20:17;;;;;;;15.77;10.95;;;12.00;99.90;;;;;;7404034;19;19924;-76
2023/03/18 10:23:19;;;;;;;19.42;11.23;;;11.90;99.90;;;;;;7404166;19;19945;-77
2023/03/18 10:26:16;;;;;;;17.60;11.15;;;11.90;99.90;;;;;;7402608;19;19914;-76
2023/03/18 10:29:14;;;;;;;19.58;11.88;;;12.10;99.90;;;;;;7404174;19;20249;-77
2023/03/18 10:32:11;;;;;;;18.15;10.75;;;12.10;99.90;;;;;;7404237;19;19938;-77
2023/03/18 10:35:09;;;;;;;16.70;11.05;;;12.30;99.90;;;;;;7405952;19;19919;-76
2023/03/18 10:38:04;;;;;;;20.40;12.00;;;12.10;99.90;;;;;;7407830;19;20014;-77
2023/03/18 10:40:57;;;;;;;24.30;12.98;;;12.00;99.90;;;;;;7406062;19;20419;-77
2023/03/18 10:43:48;;;;;;;22.38;12.15;;;12.20;99.90;;;;;;7411291;19;19925;-76
2023/03/18 10:46:20;;;;;;;25.48;13.40;;;12.30;99.90;;;;;;7404203;19;19926;-77
2023/03/18 10:48:53;;;;;;;23.08;12.00;;;12.20;99.90;;;;;;7404838;19;19982;-77
2023/03/18 10:51:28;;;;;;;21.23;12.77;;;12.20;99.90;;;;;;7404432;19;20005;-77
2023/03/18 10:54:04;;;;;;;23.75;13.02;;;12.40;99.90;;;;;;7404656;19;19918;-78
2023/03/18 10:56:37;;;;;;;21.83;12.98;;;12.40;99.90;;;;;;7403547;19;19926;-77
2023/03/18 10:59:14;;;;;;;20.42;13.30;;;12.40;99.90;;;;;;7404615;19;19925;-77
2023/03/18 11:01:44;;;;;;;20.15;13.13;;;12.40;99.90;;;;;;7404505;19;19923;-77
2023/03/18 11:04:16;;;;;;;19.65;12.32;;;12.40;99.90;;;;;;7402979;19;19918;-77
2023/03/18 11:06:49;;;;;;;20.73;13.73;;;12.50;99.90;;;;;;7402894;19;19921;-78
2023/03/18 11:09:20;;;;;;;23.85;14.30;;;12.80;99.90;;;;;;7404300;19;19936;-77
2023/03/18 11:11:58;;;;;;;22.35;13.63;;;12.90;99.90;;;;;;7403872;19;19925;-77
2023/03/18 11:14:31;;;;;;;23.13;14.60;;;13.00;99.90;;;;;;7404408;19;19967;-77
2023/03/18 11:17:03;;;;;;;20.30;13.38;;;13.10;99.90;;;;;;7403804;19;19915;-77
2023/03/18 11:19:40;;;;;;;26.20;14.52;;;13.10;99.90;;;;;;7404534;19;20332;-77
2023/03/18 11:22:20;;;;;;;22.90;12.98;;;13.10;99.90;;;;;;7402371;19;19930;-77
2023/03/18 11:25:04;;;;;;;20.23;13.88;;;13.00;99.90;;;;;;7404746;19;19919;-77
2023/03/18 11:27:41;;;;;;;21.73;13.73;;;13.00;99.90;;;;;;7401597;19;19925;-77
2023/03/18 11:30:17;;;;;;;24.58;12.85;;;13.10;99.90;;;;;;7403537;19;19918;-77
2023/03/18 11:32:57;;;;;;;16.70;11.00;;;13.00;99.90;;;;;;7403402;19;19914;-77
2023/03/18 11:35:34;;;;;;;17.08;9.98;;;12.90;99.90;;;;;;7403514;19;19990;-77
2023/03/18 11:38:06;;;;;;;18.70;10.07;;;12.90;99.90;;;;;;7403872;19;19962;-78
2023/03/18 11:40:35;;;;;;;15.75;8.77;;;13.20;99.90;;;;;;7403627;19;19923;-77
2023/03/18 11:43:18;;;;;;;13.98;7.85;;;13.50;99.90;;;;;;7404486;19;20353;-77
2023/03/18 11:45:57;;;;;;;14.38;8.30;;;13.70;99.90;;;;;;7402569;19;19914;-77
2023/03/18 11:48:34;;;;;;;16.45;9.65;;;13.60;99.90;;;;;;7403292;19;19915;-77
2023/03/18 11:51:33;;;;;;;12.45;8.35;;;13.70;99.90;;;;;;7403065;19;19923;-78
2023/03/18 11:54:23;;;;;;;13.30;7.88;;;13.60;99.90;;;;;;7402941;19;19911;-77
2023/03/18 11:56:59;;;;;;;12.13;7.45;;;13.60;99.90;;;;;;7402126;19;20234;-77
2023/03/18 11:59:53;;;;;;;14.45;8.20;;;13.90;99.90;;;;;;7403352;19;20648;-77
2023/03/18 12:02:39;;;;;;;11.95;7.97;;;14.10;99.90;;;;;;7401937;19;19910;-77
2023/03/18 12:05:31;;;;;;;16.40;8.35;;;14.00;99.90;;;;;;7400554;19;19915;-77
2023/03/18 12:08:10;;;;;;;15.50;9.68;;;14.10;99.90;;;;;;7400327;19;19922;-78
2023/03/18 12:10:47;;;;;;;13.80;8.52;;;14.00;99.90;;;;;;7402956;19;20293;-78
2023/03/18 12:13:33;;;;;;;15.40;8.10;;;14.00;99.90;;;;;;7402765;19;19935;-77
2023/03/18 12:16:15;;;;;;;10.32;6.95;;;14.20;99.90;;;;;;7402192;19;20264;-78
2023/03/18 12:19:08;;;;;;;10.27;7.13;;;14.10;99.90;;;;;;7402457;19;19918;-77
2023/03/18 12:22:05;;;;;;;11.55;7.25;;;14.40;99.90;;;;;;7402668;19;19926;-77
2023/03/18 12:24:54;;;;;;;11.52;6.43;;;12.40;99.90;;;;;;7401171;19;19942;-77
2023/03/18 12:27:33;;;;;;;10.75;6.43;;;14.30;99.90;;;;;;7400963;19;19990;-77
2023/03/18 12:30:22;;;;;;;13.73;6.93;;;14.30;99.90;;;;;;7402274;19;19914;-78
2023/03/18 12:32:59;;;;;;;12.15;7.20;;;14.30;99.90;;;;;;7402198;19;19964;-78
2023/03/18 12:35:43;;;;;;;10.20;6.00;;;14.70;99.90;;;;;;7402491;19;20340;-77
2023/03/18 12:38:39;;;;;;;10.88;6.32;;;14.90;99.90;;;;;;7402092;19;19933;-77
2023/03/18 12:41:16;;;;;;;10.50;6.82;;;14.90;99.90;;;;;;7400639;19;20249;-77
2023/03/18 12:44:06;;;;;;;10.10;6.20;;;15.10;99.90;;;;;;7404880;19;19919;-78
2023/03/18 12:46:41;;;;;;;8.60;6.25;;;15.20;99.90;;;;;;7400988;19;19918;-76
2023/03/18 12:49:18;;;;;;;9.60;6.15;;;15.40;99.90;;;;;;7401666;19;20345;-77
2023/03/18 12:51:49;;;;;;;;;;;15.40;99.90;;;;;;7404199;19;19919;-77
2023/03/18 12:54:23;;;;;;;9.05;6.00;;;15.30;99.90;;;;;;7401579;19;20266;-77
2023/03/18 12:56:56;;;;;;;10.52;5.95;;;15.40;99.90;;;;;;7400575;19;19955;-76
2023/03/18 12:59:30;;;;;;;9.98;6.25;;;15.80;99.90;;;;;;7401591;19;19919;-76
2023/03/18 13:02:17;;;;;;;9.25;6.25;;;15.30;99.90;;;;;;7401793;19;19924;-76
2023/03/18 13:04:55;;;;;;;8.00;5.68;;;15.10;99.90;;;;;;7399755;19;19914;-76
2023/03/18 13:07:27;;;;;;;8.18;6.55;;;15.10;99.90;;;;;;7400682;19;20322;-76
2023/03/18 13:10:03;;;;;;;7.90;5.82;;;15.40;99.90;;;;;;7400808;19;19918;-77
2023/03/18 13:12:35;;;;;;;9.13;5.50;;;15.30;99.90;;;;;;7400844;19;19917;-77
2023/03/18 13:15:12;;;;;;;7.05;5.13;;;15.10;99.90;;;;;;7400336;19;19926;-77
2023/03/18 13:17:43;;;;;;;7.72;5.43;;;15.20;99.90;;;;;;7401007;19;20282;-77
2023/03/18 13:20:25;;;;;;;5.88;3.75;;;15.40;99.90;;;;;;7400596;19;19918;-77